sensor_id;sensor_type;location;lat;lon;timestamp;temperature;humidity
35497;DHT22;21609;49.298;6.844;2022-09-23T00:00:41;21.00;53.40
35497;DHT22;21609;49.298;6.844;2022-09-23T00:03:07;21.00;53.40
35497;DHT22;21609;49.298;6.844;2022-09-23T00:05:33;20.90;53.40
35497;DHT22;21609;49.298;6.844;2022-09-23T00:07:59;20.90;53.40
35497;DHT22;21609;49.298;6.844;2022-09-23T00:10:28;20.90;53.40
35497;DHT22;21609;49.298;6.844;2022-09-23T00:12:56;20.90;53.40
35497;DHT22;21609;49.298;6.844;2022-09-23T00:15:22;20.90;53.40
35497;DHT22;21609;49.298;6.844;2022-09-23T00:17:50;20.90;53.40
35497;DHT22;21609;49.298;6.844;2022-09-23T00:20:16;20.90;53.40
35497;DHT22;21609;49.298;6.844;2022-09-23T00:22:42;20.90;53.40
35497;DHT22;21609;49.298;6.844;2022-09-23T00:25:09;20.90;53.40
35497;DHT22;21609;49.298;6.844;2022-09-23T00:27:36;20.90;53.30
35497;DHT22;21609;49.298;6.844;2022-09-23T00:30:04;20.90;53.30
35497;DHT22;21609;49.298;6.844;2022-09-23T00:32:30;20.90;53.30
35497;DHT22;21609;49.298;6.844;2022-09-23T00:34:55;20.90;53.30
35497;DHT22;21609;49.298;6.844;2022-09-23T00:37:21;20.90;53.40
35497;DHT22;21609;49.298;6.844;2022-09-23T00:39:47;20.90;53.30
35497;DHT22;21609;49.298;6.844;2022-09-23T00:42:15;20.90;53.30
35497;DHT22;21609;49.298;6.844;2022-09-23T00:44:54;20.90;53.30
35497;DHT22;21609;49.298;6.844;2022-09-23T00:50:00;20.90;53.30
35497;DHT22;21609;49.298;6.844;2022-09-23T00:52:28;20.90;53.30
35497;DHT22;21609;49.298;6.844;2022-09-23T00:54:57;20.80;53.30
35497;DHT22;21609;49.298;6.844;2022-09-23T00:57:24;20.80;53.20
35497;DHT22;21609;49.298;6.844;2022-09-23T00:59:51;20.80;53.20
35497;DHT22;21609;49.298;6.844;2022-09-23T01:02:19;20.80;53.30
35497;DHT22;21609;49.298;6.844;2022-09-23T01:04:49;20.80;53.30
35497;DHT22;21609;49.298;6.844;2022-09-23T01:07:16;20.80;53.20
35497;DHT22;21609;49.298;6.844;2022-09-23T01:09:42;20.80;53.20
35497;DHT22;21609;49.298;6.844;2022-09-23T01:17:55;20.80;53.30
35497;DHT22;21609;49.298;6.844;2022-09-23T01:26:20;20.80;53.20
35497;DHT22;21609;49.298;6.844;2022-09-23T01:31:51;20.80;53.30
35497;DHT22;21609;49.298;6.844;2022-09-23T01:34:36;20.70;53.20
35497;DHT22;21609;49.298;6.844;2022-09-23T01:37:09;20.70;53.20
35497;DHT22;21609;49.298;6.844;2022-09-23T01:39:39;20.70;53.20
35497;DHT22;21609;49.298;6.844;2022-09-23T01:42:19;20.70;53.20
35497;DHT22;21609;49.298;6.844;2022-09-23T01:47:27;20.70;53.20
35497;DHT22;21609;49.298;6.844;2022-09-23T01:50:05;20.70;53.20
35497;DHT22;21609;49.298;6.844;2022-09-23T01:52:52;20.70;53.20
35497;DHT22;21609;49.298;6.844;2022-09-23T01:55:23;20.70;53.20
35497;DHT22;21609;49.298;6.844;2022-09-23T01:57:56;20.70;53.20
35497;DHT22;21609;49.298;6.844;2022-09-23T02:00:23;20.70;53.20
35497;DHT22;21609;49.298;6.844;2022-09-23T02:02:53;20.70;53.20
35497;DHT22;21609;49.298;6.844;2022-09-23T02:05:29;20.70;53.20
35497;DHT22;21609;49.298;6.844;2022-09-23T02:10:35;20.70;53.20
35497;DHT22;21609;49.298;6.844;2022-09-23T02:13:08;20.70;53.20
35497;DHT22;21609;49.298;6.844;2022-09-23T02:15:50;20.70;53.20
35497;DHT22;21609;49.298;6.844;2022-09-23T02:18:25;20.60;53.10
35497;DHT22;21609;49.298;6.844;2022-09-23T02:20:59;20.60;53.10
35497;DHT22;21609;49.298;6.844;2022-09-23T02:23:33;20.70;53.20
35497;DHT22;21609;49.298;6.844;2022-09-23T02:31:59;20.60;53.10
35497;DHT22;21609;49.298;6.844;2022-09-23T02:40:39;20.60;53.10
35497;DHT22;21609;49.298;6.844;2022-09-23T02:43:23;20.60;53.10
35497;DHT22;21609;49.298;6.844;2022-09-23T02:45:52;20.60;53.10
35497;DHT22;21609;49.298;6.844;2022-09-23T02:48:31;20.60;53.20
35497;DHT22;21609;49.298;6.844;2022-09-23T02:50:58;20.60;53.10
35497;DHT22;21609;49.298;6.844;2022-09-23T02:53:27;20.60;53.10
35497;DHT22;21609;49.298;6.844;2022-09-23T02:55:53;20.60;53.10
35497;DHT22;21609;49.298;6.844;2022-09-23T02:58:18;20.60;53.20
35497;DHT22;21609;49.298;6.844;2022-09-23T03:06:22;20.60;53.10
35497;DHT22;21609;49.298;6.844;2022-09-23T03:08:54;20.50;53.10
35497;DHT22;21609;49.298;6.844;2022-09-23T03:11:22;20.60;53.10
35497;DHT22;21609;49.298;6.844;2022-09-23T03:16:41;20.50;53.10
35497;DHT22;21609;49.298;6.844;2022-09-23T03:22:35;20.50;53.10
35497;DHT22;21609;49.298;6.844;2022-09-23T03:25:05;20.50;53.00
35497;DHT22;21609;49.298;6.844;2022-09-23T03:27:34;20.50;53.00
35497;DHT22;21609;49.298;6.844;2022-09-23T03:30:00;20.50;53.10
35497;DHT22;21609;49.298;6.844;2022-09-23T03:32:27;20.50;53.10
35497;DHT22;21609;49.298;6.844;2022-09-23T03:34:57;20.50;53.10
35497;DHT22;21609;49.298;6.844;2022-09-23T03:40:19;20.50;53.00
35497;DHT22;21609;49.298;6.844;2022-09-23T03:42:46;20.50;53.10
35497;DHT22;21609;49.298;6.844;2022-09-23T03:45:19;20.40;53.00
35497;DHT22;21609;49.298;6.844;2022-09-23T03:47:45;20.50;53.10
35497;DHT22;21609;49.298;6.844;2022-09-23T03:50:12;20.40;53.00
35497;DHT22;21609;49.298;6.844;2022-09-23T03:52:38;20.50;53.10
35497;DHT22;21609;49.298;6.844;2022-09-23T03:55:07;20.40;53.00
35497;DHT22;21609;49.298;6.844;2022-09-23T03:57:33;20.40;53.00
35497;DHT22;21609;49.298;6.844;2022-09-23T03:59:58;20.40;53.00
35497;DHT22;21609;49.298;6.844;2022-09-23T04:02:24;20.40;53.00
35497;DHT22;21609;49.298;6.844;2022-09-23T04:04:51;20.40;53.10
35497;DHT22;21609;49.298;6.844;2022-09-23T04:07:16;20.40;53.00
35497;DHT22;21609;49.298;6.844;2022-09-23T04:09:42;20.40;53.00
35497;DHT22;21609;49.298;6.844;2022-09-23T04:12:11;20.40;53.00
35497;DHT22;21609;49.298;6.844;2022-09-23T04:14:37;20.40;53.00
35497;DHT22;21609;49.298;6.844;2022-09-23T04:17:03;20.40;53.10
35497;DHT22;21609;49.298;6.844;2022-09-23T04:19:29;20.40;53.00
35497;DHT22;21609;49.298;6.844;2022-09-23T04:21:54;20.40;53.00
35497;DHT22;21609;49.298;6.844;2022-09-23T04:24:20;20.40;53.00
35497;DHT22;21609;49.298;6.844;2022-09-23T04:26:49;20.40;53.00
35497;DHT22;21609;49.298;6.844;2022-09-23T04:29:16;20.40;53.10
35497;DHT22;21609;49.298;6.844;2022-09-23T04:31:41;20.40;53.10
35497;DHT22;21609;49.298;6.844;2022-09-23T04:34:08;20.40;53.10
35497;DHT22;21609;49.298;6.844;2022-09-23T04:36:33;20.30;53.00
35497;DHT22;21609;49.298;6.844;2022-09-23T04:39:00;20.40;53.10
35497;DHT22;21609;49.298;6.844;2022-09-23T04:41:26;20.30;53.00
35497;DHT22;21609;49.298;6.844;2022-09-23T04:43:51;20.30;53.10
35497;DHT22;21609;49.298;6.844;2022-09-23T04:46:17;20.40;53.10
35497;DHT22;21609;49.298;6.844;2022-09-23T04:48:43;20.30;53.00
35497;DHT22;21609;49.298;6.844;2022-09-23T04:51:10;20.30;53.00
35497;DHT22;21609;49.298;6.844;2022-09-23T04:53:37;20.30;53.00
35497;DHT22;21609;49.298;6.844;2022-09-23T04:56:06;20.30;53.00
35497;DHT22;21609;49.298;6.844;2022-09-23T04:58:31;20.30;53.00
35497;DHT22;21609;49.298;6.844;2022-09-23T05:01:07;20.30;53.10
35497;DHT22;21609;49.298;6.844;2022-09-23T05:03:33;20.30;53.10
35497;DHT22;21609;49.298;6.844;2022-09-23T05:06:00;20.30;53.10
35497;DHT22;21609;49.298;6.844;2022-09-23T05:08:26;20.30;53.00
35497;DHT22;21609;49.298;6.844;2022-09-23T05:10:56;20.30;53.10
35497;DHT22;21609;49.298;6.844;2022-09-23T05:13:22;20.30;53.00
35497;DHT22;21609;49.298;6.844;2022-09-23T05:15:47;20.20;53.00
35497;DHT22;21609;49.298;6.844;2022-09-23T05:18:13;20.20;53.00
35497;DHT22;21609;49.298;6.844;2022-09-23T05:20:38;20.30;53.10
35497;DHT22;21609;49.298;6.844;2022-09-23T05:23:04;20.20;53.00
35497;DHT22;21609;49.298;6.844;2022-09-23T05:25:29;20.20;53.00
35497;DHT22;21609;49.298;6.844;2022-09-23T05:27:55;20.20;53.10
35497;DHT22;21609;49.298;6.844;2022-09-23T05:30:20;20.20;53.10
35497;DHT22;21609;49.298;6.844;2022-09-23T05:32:46;20.20;53.10
35497;DHT22;21609;49.298;6.844;2022-09-23T05:35:12;20.20;53.10
35497;DHT22;21609;49.298;6.844;2022-09-23T05:37:37;20.20;53.10
35497;DHT22;21609;49.298;6.844;2022-09-23T05:40:03;20.10;53.10
35497;DHT22;21609;49.298;6.844;2022-09-23T05:42:29;20.20;53.10
35497;DHT22;21609;49.298;6.844;2022-09-23T05:44:54;20.20;53.20
35497;DHT22;21609;49.298;6.844;2022-09-23T05:47:20;20.10;53.10
35497;DHT22;21609;49.298;6.844;2022-09-23T05:49:46;20.20;53.10
35497;DHT22;21609;49.298;6.844;2022-09-23T05:52:12;20.20;53.20
35497;DHT22;21609;49.298;6.844;2022-09-23T05:54:37;20.20;53.20
35497;DHT22;21609;49.298;6.844;2022-09-23T05:57:03;20.10;53.20
35497;DHT22;21609;49.298;6.844;2022-09-23T05:59:30;20.10;53.20
35497;DHT22;21609;49.298;6.844;2022-09-23T06:01:55;20.10;53.20
35497;DHT22;21609;49.298;6.844;2022-09-23T06:04:21;20.10;53.20
35497;DHT22;21609;49.298;6.844;2022-09-23T06:06:47;20.10;53.20
35497;DHT22;21609;49.298;6.844;2022-09-23T06:09:14;20.10;53.20
35497;DHT22;21609;49.298;6.844;2022-09-23T06:11:40;20.10;53.20
35497;DHT22;21609;49.298;6.844;2022-09-23T06:14:06;20.10;53.20
35497;DHT22;21609;49.298;6.844;2022-09-23T06:16:34;20.10;53.20
35497;DHT22;21609;49.298;6.844;2022-09-23T06:19:00;20.10;53.20
35497;DHT22;21609;49.298;6.844;2022-09-23T06:21:34;20.10;53.20
35497;DHT22;21609;49.298;6.844;2022-09-23T06:24:00;20.00;53.10
35497;DHT22;21609;49.298;6.844;2022-09-23T06:26:27;20.00;53.10
35497;DHT22;21609;49.298;6.844;2022-09-23T06:28:58;20.10;53.20
35497;DHT22;21609;49.298;6.844;2022-09-23T06:31:24;20.00;53.10
35497;DHT22;21609;49.298;6.844;2022-09-23T06:33:49;20.00;53.10
35497;DHT22;21609;49.298;6.844;2022-09-23T06:36:15;20.00;53.10
35497;DHT22;21609;49.298;6.844;2022-09-23T06:38:41;20.00;53.10
35497;DHT22;21609;49.298;6.844;2022-09-23T06:41:11;20.00;53.10
35497;DHT22;21609;49.298;6.844;2022-09-23T06:43:36;20.00;53.10
35497;DHT22;21609;49.298;6.844;2022-09-23T06:46:04;20.00;53.00
35497;DHT22;21609;49.298;6.844;2022-09-23T06:48:32;20.00;53.10
35497;DHT22;21609;49.298;6.844;2022-09-23T06:51:02;20.00;53.10
35497;DHT22;21609;49.298;6.844;2022-09-23T06:53:29;20.00;53.10
35497;DHT22;21609;49.298;6.844;2022-09-23T06:56:01;20.00;53.10
35497;DHT22;21609;49.298;6.844;2022-09-23T06:58:28;20.10;53.20
35497;DHT22;21609;49.298;6.844;2022-09-23T07:01:02;20.00;53.20
35497;DHT22;21609;49.298;6.844;2022-09-23T07:03:28;20.00;53.20
35497;DHT22;21609;49.298;6.844;2022-09-23T07:05:57;20.00;53.20
35497;DHT22;21609;49.298;6.844;2022-09-23T07:08:24;20.00;53.20
35497;DHT22;21609;49.298;6.844;2022-09-23T07:10:55;20.00;53.20
35497;DHT22;21609;49.298;6.844;2022-09-23T07:13:21;20.00;53.30
35497;DHT22;21609;49.298;6.844;2022-09-23T07:15:51;20.00;53.20
35497;DHT22;21609;49.298;6.844;2022-09-23T07:18:17;20.00;53.30
35497;DHT22;21609;49.298;6.844;2022-09-23T07:20:43;20.00;53.30
35497;DHT22;21609;49.298;6.844;2022-09-23T07:23:09;20.00;53.30
35497;DHT22;21609;49.298;6.844;2022-09-23T07:25:34;20.00;53.30
35497;DHT22;21609;49.298;6.844;2022-09-23T07:28:00;20.00;53.40
35497;DHT22;21609;49.298;6.844;2022-09-23T07:30:26;20.00;53.40
35497;DHT22;21609;49.298;6.844;2022-09-23T07:32:51;20.00;53.40
35497;DHT22;21609;49.298;6.844;2022-09-23T07:35:18;20.00;53.50
35497;DHT22;21609;49.298;6.844;2022-09-23T07:37:44;20.00;53.60
35497;DHT22;21609;49.298;6.844;2022-09-23T07:40:10;20.00;53.60
35497;DHT22;21609;49.298;6.844;2022-09-23T07:42:36;20.00;53.70
35497;DHT22;21609;49.298;6.844;2022-09-23T07:45:03;20.00;53.80
35497;DHT22;21609;49.298;6.844;2022-09-23T07:47:31;20.00;53.90
35497;DHT22;21609;49.298;6.844;2022-09-23T07:49:56;20.00;54.00
35497;DHT22;21609;49.298;6.844;2022-09-23T07:52:22;20.00;54.10
35497;DHT22;21609;49.298;6.844;2022-09-23T07:54:47;20.00;54.20
35497;DHT22;21609;49.298;6.844;2022-09-23T07:57:13;20.00;54.30
35497;DHT22;21609;49.298;6.844;2022-09-23T07:59:38;20.00;54.40
35497;DHT22;21609;49.298;6.844;2022-09-23T08:02:05;20.00;54.50
35497;DHT22;21609;49.298;6.844;2022-09-23T08:04:31;20.00;54.60
35497;DHT22;21609;49.298;6.844;2022-09-23T08:07:00;20.00;54.70
35497;DHT22;21609;49.298;6.844;2022-09-23T08:09:36;20.00;54.80
35497;DHT22;21609;49.298;6.844;2022-09-23T08:12:06;20.00;54.90
35497;DHT22;21609;49.298;6.844;2022-09-23T08:14:31;20.00;55.00
35497;DHT22;21609;49.298;6.844;2022-09-23T08:16:57;20.00;55.10
35497;DHT22;21609;49.298;6.844;2022-09-23T08:19:22;20.00;55.20
35497;DHT22;21609;49.298;6.844;2022-09-23T08:21:48;20.00;55.30
35497;DHT22;21609;49.298;6.844;2022-09-23T08:24:18;20.00;55.30
35497;DHT22;21609;49.298;6.844;2022-09-23T08:26:45;20.00;55.40
35497;DHT22;21609;49.298;6.844;2022-09-23T08:29:15;20.00;55.50
35497;DHT22;21609;49.298;6.844;2022-09-23T08:31:41;20.10;55.70
35497;DHT22;21609;49.298;6.844;2022-09-23T08:34:08;20.00;55.70
35497;DHT22;21609;49.298;6.844;2022-09-23T08:36:34;20.00;55.80
35497;DHT22;21609;49.298;6.844;2022-09-23T08:39:00;20.10;55.90
35497;DHT22;21609;49.298;6.844;2022-09-23T08:49:31;20.10;56.20
35497;DHT22;21609;49.298;6.844;2022-09-23T08:51:59;20.10;56.40
35497;DHT22;21609;49.298;6.844;2022-09-23T08:54:30;20.10;56.50
35497;DHT22;21609;49.298;6.844;2022-09-23T08:56:57;20.10;56.60
35497;DHT22;21609;49.298;6.844;2022-09-23T08:59:28;20.10;56.60
35497;DHT22;21609;49.298;6.844;2022-09-23T09:02:10;20.10;56.70
35497;DHT22;21609;49.298;6.844;2022-09-23T09:04:41;20.10;56.70
35497;DHT22;21609;49.298;6.844;2022-09-23T09:07:26;20.10;56.80
35497;DHT22;21609;49.298;6.844;2022-09-23T09:12:36;20.10;56.80
35497;DHT22;21609;49.298;6.844;2022-09-23T09:15:04;20.20;56.90
35497;DHT22;21609;49.298;6.844;2022-09-23T09:17:37;20.20;57.00
35497;DHT22;21609;49.298;6.844;2022-09-23T09:22:54;20.20;57.00
35497;DHT22;21609;49.298;6.844;2022-09-23T09:31:01;20.20;57.20
35497;DHT22;21609;49.298;6.844;2022-09-23T09:33:34;20.20;57.20
35497;DHT22;21609;49.298;6.844;2022-09-23T09:36:18;20.20;57.30
35497;DHT22;21609;49.298;6.844;2022-09-23T09:38:45;20.20;57.30
35497;DHT22;21609;49.298;6.844;2022-09-23T09:41:16;20.20;57.30
35497;DHT22;21609;49.298;6.844;2022-09-23T09:43:46;20.20;57.30
35497;DHT22;21609;49.298;6.844;2022-09-23T09:49:20;20.20;57.50
35497;DHT22;21609;49.298;6.844;2022-09-23T09:51:47;20.20;57.50
35497;DHT22;21609;49.298;6.844;2022-09-23T09:54:23;20.20;57.50
35497;DHT22;21609;49.298;6.844;2022-09-23T09:56:50;20.20;57.60
35497;DHT22;21609;49.298;6.844;2022-09-23T09:59:25;20.30;57.60
35497;DHT22;21609;49.298;6.844;2022-09-23T10:02:29;20.30;57.70
35497;DHT22;21609;49.298;6.844;2022-09-23T10:05:21;20.30;57.80
35497;DHT22;21609;49.298;6.844;2022-09-23T10:07:50;20.30;57.80
35497;DHT22;21609;49.298;6.844;2022-09-23T10:10:21;20.30;57.80
35497;DHT22;21609;49.298;6.844;2022-09-23T10:12:51;20.30;57.80
35497;DHT22;21609;49.298;6.844;2022-09-23T10:15:40;20.30;57.70
35497;DHT22;21609;49.298;6.844;2022-09-23T10:18:18;20.30;57.80
35497;DHT22;21609;49.298;6.844;2022-09-23T10:20:44;20.30;57.70
35497;DHT22;21609;49.298;6.844;2022-09-23T10:23:17;20.30;57.60
35497;DHT22;21609;49.298;6.844;2022-09-23T10:25:57;20.40;57.70
35497;DHT22;21609;49.298;6.844;2022-09-23T10:28:45;20.40;57.70
35497;DHT22;21609;49.298;6.844;2022-09-23T10:31:13;20.40;57.70
35497;DHT22;21609;49.298;6.844;2022-09-23T10:33:53;20.40;57.60
35497;DHT22;21609;49.298;6.844;2022-09-23T10:36:20;20.40;57.60
35497;DHT22;21609;49.298;6.844;2022-09-23T10:38:52;20.40;57.50
35497;DHT22;21609;49.298;6.844;2022-09-23T10:41:40;20.40;57.50
35497;DHT22;21609;49.298;6.844;2022-09-23T10:44:52;20.40;57.60
35497;DHT22;21609;49.298;6.844;2022-09-23T10:47:54;20.40;57.50
35497;DHT22;21609;49.298;6.844;2022-09-23T10:50:34;20.40;57.50
35497;DHT22;21609;49.298;6.844;2022-09-23T10:53:11;20.40;57.40
35497;DHT22;21609;49.298;6.844;2022-09-23T11:01:01;20.40;57.50
35497;DHT22;21609;49.298;6.844;2022-09-23T11:06:32;20.40;57.50
35497;DHT22;21609;49.298;6.844;2022-09-23T11:09:24;20.50;57.60
35497;DHT22;21609;49.298;6.844;2022-09-23T11:17:35;20.50;57.60
35497;DHT22;21609;49.298;6.844;2022-09-23T11:25:37;20.50;57.50
35497;DHT22;21609;49.298;6.844;2022-09-23T11:36:52;20.50;57.40
35497;DHT22;21609;49.298;6.844;2022-09-23T11:39:34;20.50;57.50
35497;DHT22;21609;49.298;6.844;2022-09-23T11:42:01;20.50;57.40
35497;DHT22;21609;49.298;6.844;2022-09-23T11:48:18;20.50;57.40
35497;DHT22;21609;49.298;6.844;2022-09-23T11:52:09;20.50;57.30
35497;DHT22;21609;49.298;6.844;2022-09-23T11:55:23;20.50;57.10
35497;DHT22;21609;49.298;6.844;2022-09-23T11:58:47;20.60;57.00
35497;DHT22;21609;49.298;6.844;2022-09-23T12:01:47;20.60;56.90
35497;DHT22;21609;49.298;6.844;2022-09-23T12:04:42;20.60;56.60
35497;DHT22;21609;49.298;6.844;2022-09-23T12:07:21;20.70;56.70
35497;DHT22;21609;49.298;6.844;2022-09-23T12:09:56;20.70;56.80
35497;DHT22;21609;49.298;6.844;2022-09-23T12:23:50;20.80;57.00
35497;DHT22;21609;49.298;6.844;2022-09-23T12:26:24;20.80;56.60
35497;DHT22;21609;49.298;6.844;2022-09-23T12:28:52;20.80;56.50
35497;DHT22;21609;49.298;6.844;2022-09-23T12:31:24;20.90;56.40
35497;DHT22;21609;49.298;6.844;2022-09-23T12:33:59;20.90;56.40
35497;DHT22;21609;49.298;6.844;2022-09-23T12:36:29;21.00;56.30
35497;DHT22;21609;49.298;6.844;2022-09-23T12:39:05;21.10;56.10
35497;DHT22;21609;49.298;6.844;2022-09-23T12:41:45;21.10;56.20
35497;DHT22;21609;49.298;6.844;2022-09-23T12:44:26;21.00;56.20
35497;DHT22;21609;49.298;6.844;2022-09-23T12:49:54;21.00;56.30
35497;DHT22;21609;49.298;6.844;2022-09-23T12:52:25;21.00;56.20
35497;DHT22;21609;49.298;6.844;2022-09-23T12:57:41;21.00;56.10
35497;DHT22;21609;49.298;6.844;2022-09-23T13:05:19;21.10;55.70
35497;DHT22;21609;49.298;6.844;2022-09-23T13:08:19;21.10;55.60
35497;DHT22;21609;49.298;6.844;2022-09-23T13:10:57;21.20;55.50
35497;DHT22;21609;49.298;6.844;2022-09-23T13:13:28;21.20;55.40
35497;DHT22;21609;49.298;6.844;2022-09-23T13:16:11;21.20;55.30
35497;DHT22;21609;49.298;6.844;2022-09-23T13:18:52;21.20;55.20
35497;DHT22;21609;49.298;6.844;2022-09-23T13:32:18;21.20;55.50
35497;DHT22;21609;49.298;6.844;2022-09-23T13:34:45;21.20;54.90
35497;DHT22;21609;49.298;6.844;2022-09-23T13:37:47;21.20;54.70
35497;DHT22;21609;49.298;6.844;2022-09-23T13:40:23;21.20;54.80
35497;DHT22;21609;49.298;6.844;2022-09-23T13:43:01;21.20;54.80
35497;DHT22;21609;49.298;6.844;2022-09-23T13:45:28;21.20;54.80
35497;DHT22;21609;49.298;6.844;2022-09-23T13:48:01;21.20;55.00
35497;DHT22;21609;49.298;6.844;2022-09-23T13:50:28;21.20;54.80
35497;DHT22;21609;49.298;6.844;2022-09-23T13:52:59;21.10;54.90
35497;DHT22;21609;49.298;6.844;2022-09-23T13:55:28;21.10;55.50
35497;DHT22;21609;49.298;6.844;2022-09-23T13:58:03;21.10;55.40
35497;DHT22;21609;49.298;6.844;2022-09-23T14:00:35;21.10;55.30
35497;DHT22;21609;49.298;6.844;2022-09-23T14:03:02;21.00;55.40
35497;DHT22;21609;49.298;6.844;2022-09-23T14:05:40;21.00;55.60
35497;DHT22;21609;49.298;6.844;2022-09-23T14:08:07;21.00;55.70
35497;DHT22;21609;49.298;6.844;2022-09-23T14:10:32;21.00;55.60
35497;DHT22;21609;49.298;6.844;2022-09-23T14:12:58;21.00;55.60
35497;DHT22;21609;49.298;6.844;2022-09-23T14:15:24;21.00;55.60
35497;DHT22;21609;49.298;6.844;2022-09-23T14:17:53;21.00;55.70
35497;DHT22;21609;49.298;6.844;2022-09-23T14:20:22;21.00;55.60
35497;DHT22;21609;49.298;6.844;2022-09-23T14:23:11;21.00;55.70
35497;DHT22;21609;49.298;6.844;2022-09-23T14:25:39;21.00;55.70
35497;DHT22;21609;49.298;6.844;2022-09-23T14:28:05;21.00;55.70
35497;DHT22;21609;49.298;6.844;2022-09-23T14:30:31;21.00;55.60
35497;DHT22;21609;49.298;6.844;2022-09-23T14:32:56;20.90;55.60
35497;DHT22;21609;49.298;6.844;2022-09-23T14:35:38;21.00;55.60
35497;DHT22;21609;49.298;6.844;2022-09-23T14:38:04;21.00;55.70
35497;DHT22;21609;49.298;6.844;2022-09-23T14:40:51;21.00;55.70
35497;DHT22;21609;49.298;6.844;2022-09-23T14:43:26;20.90;55.60
35497;DHT22;21609;49.298;6.844;2022-09-23T14:45:57;21.00;55.70
35497;DHT22;21609;49.298;6.844;2022-09-23T14:48:30;21.00;55.70
35497;DHT22;21609;49.298;6.844;2022-09-23T14:50:59;21.00;55.70
35497;DHT22;21609;49.298;6.844;2022-09-23T14:53:30;21.00;55.80
35497;DHT22;21609;49.298;6.844;2022-09-23T14:58:45;21.00;55.90
35497;DHT22;21609;49.298;6.844;2022-09-23T15:04:18;21.00;56.00
35497;DHT22;21609;49.298;6.844;2022-09-23T15:06:54;21.00;56.00
35497;DHT22;21609;49.298;6.844;2022-09-23T15:09:32;21.00;56.00
35497;DHT22;21609;49.298;6.844;2022-09-23T15:12:20;21.00;56.00
35497;DHT22;21609;49.298;6.844;2022-09-23T15:14:51;21.00;56.00
35497;DHT22;21609;49.298;6.844;2022-09-23T15:17:33;21.00;56.00
35497;DHT22;21609;49.298;6.844;2022-09-23T15:20:05;21.10;55.90
35497;DHT22;21609;49.298;6.844;2022-09-23T15:22:51;21.00;55.80
35497;DHT22;21609;49.298;6.844;2022-09-23T15:25:25;21.10;55.70
35497;DHT22;21609;49.298;6.844;2022-09-23T15:30:37;21.00;55.70
35497;DHT22;21609;49.298;6.844;2022-09-23T15:33:02;21.00;55.70
35497;DHT22;21609;49.298;6.844;2022-09-23T15:35:29;21.00;55.70
35497;DHT22;21609;49.298;6.844;2022-09-23T15:37:57;21.10;55.70
35497;DHT22;21609;49.298;6.844;2022-09-23T15:40:30;21.10;55.70
35497;DHT22;21609;49.298;6.844;2022-09-23T15:42:58;21.00;55.60
35497;DHT22;21609;49.298;6.844;2022-09-23T15:45:28;21.00;55.60
35497;DHT22;21609;49.298;6.844;2022-09-23T15:47:57;21.00;55.60
35497;DHT22;21609;49.298;6.844;2022-09-23T15:50:23;21.00;55.60
35497;DHT22;21609;49.298;6.844;2022-09-23T15:52:49;21.00;55.50
35497;DHT22;21609;49.298;6.844;2022-09-23T15:55:17;21.00;55.50
35497;DHT22;21609;49.298;6.844;2022-09-23T15:57:42;21.00;55.50
35497;DHT22;21609;49.298;6.844;2022-09-23T16:00:09;21.10;56.20
35497;DHT22;21609;49.298;6.844;2022-09-23T16:02:35;21.00;55.50
35497;DHT22;21609;49.298;6.844;2022-09-23T16:05:01;21.00;55.50
35497;DHT22;21609;49.298;6.844;2022-09-23T16:07:32;21.00;55.50
35497;DHT22;21609;49.298;6.844;2022-09-23T16:09:58;21.00;55.50
35497;DHT22;21609;49.298;6.844;2022-09-23T16:12:24;21.00;55.50
35497;DHT22;21609;49.298;6.844;2022-09-23T16:14:49;21.00;55.50
35497;DHT22;21609;49.298;6.844;2022-09-23T16:17:15;21.00;55.40
35497;DHT22;21609;49.298;6.844;2022-09-23T16:19:40;21.00;55.40
35497;DHT22;21609;49.298;6.844;2022-09-23T16:22:06;21.00;55.40
35497;DHT22;21609;49.298;6.844;2022-09-23T16:24:31;21.00;55.40
35497;DHT22;21609;49.298;6.844;2022-09-23T16:26:57;21.00;55.40
35497;DHT22;21609;49.298;6.844;2022-09-23T16:29:25;21.00;55.40
35497;DHT22;21609;49.298;6.844;2022-09-23T16:31:52;21.00;55.40
35497;DHT22;21609;49.298;6.844;2022-09-23T16:34:17;21.00;55.40
35497;DHT22;21609;49.298;6.844;2022-09-23T16:36:44;21.00;55.40
35497;DHT22;21609;49.298;6.844;2022-09-23T16:39:12;21.00;55.40
35497;DHT22;21609;49.298;6.844;2022-09-23T16:41:38;21.00;55.40
35497;DHT22;21609;49.298;6.844;2022-09-23T16:44:05;21.00;55.30
35497;DHT22;21609;49.298;6.844;2022-09-23T16:46:32;21.00;55.30
35497;DHT22;21609;49.298;6.844;2022-09-23T16:48:58;21.00;55.30
35497;DHT22;21609;49.298;6.844;2022-09-23T16:51:26;21.00;55.30
35497;DHT22;21609;49.298;6.844;2022-09-23T16:53:54;21.00;55.40
35497;DHT22;21609;49.298;6.844;2022-09-23T16:56:21;21.00;55.40
35497;DHT22;21609;49.298;6.844;2022-09-23T16:58:48;21.00;55.40
35497;DHT22;21609;49.298;6.844;2022-09-23T17:01:21;21.00;55.40
35497;DHT22;21609;49.298;6.844;2022-09-23T17:04:05;21.00;55.90
35497;DHT22;21609;49.298;6.844;2022-09-23T17:06:32;21.00;55.40
35497;DHT22;21609;49.298;6.844;2022-09-23T17:08:58;21.00;55.30
35497;DHT22;21609;49.298;6.844;2022-09-23T17:11:23;21.00;55.40
35497;DHT22;21609;49.298;6.844;2022-09-23T17:13:49;21.00;55.40
35497;DHT22;21609;49.298;6.844;2022-09-23T17:16:29;21.00;55.40
35497;DHT22;21609;49.298;6.844;2022-09-23T17:18:55;21.00;55.40
35497;DHT22;21609;49.298;6.844;2022-09-23T17:21:25;21.00;55.40
35497;DHT22;21609;49.298;6.844;2022-09-23T17:23:54;21.00;55.50
35497;DHT22;21609;49.298;6.844;2022-09-23T17:26:21;21.00;55.40
35497;DHT22;21609;49.298;6.844;2022-09-23T17:28:48;21.00;55.40
35497;DHT22;21609;49.298;6.844;2022-09-23T17:31:16;20.90;55.40
35497;DHT22;21609;49.298;6.844;2022-09-23T17:33:42;21.00;55.50
35497;DHT22;21609;49.298;6.844;2022-09-23T17:36:09;20.90;55.40
35497;DHT22;21609;49.298;6.844;2022-09-23T17:38:36;21.00;55.40
35497;DHT22;21609;49.298;6.844;2022-09-23T17:41:04;21.00;55.40
35497;DHT22;21609;49.298;6.844;2022-09-23T17:43:30;21.00;55.40
35497;DHT22;21609;49.298;6.844;2022-09-23T17:46:07;20.90;55.40
35497;DHT22;21609;49.298;6.844;2022-09-23T17:48:38;21.00;55.40
35497;DHT22;21609;49.298;6.844;2022-09-23T17:51:16;21.00;55.40
35497;DHT22;21609;49.298;6.844;2022-09-23T17:53:47;20.90;55.30
35497;DHT22;21609;49.298;6.844;2022-09-23T17:56:18;21.00;55.30
35497;DHT22;21609;49.298;6.844;2022-09-23T17:58:46;20.90;55.90
35497;DHT22;21609;49.298;6.844;2022-09-23T18:01:14;20.90;55.30
35497;DHT22;21609;49.298;6.844;2022-09-23T18:03:40;21.00;55.30
35497;DHT22;21609;49.298;6.844;2022-09-23T18:08:36;20.90;55.30
35497;DHT22;21609;49.298;6.844;2022-09-23T18:11:20;20.90;55.90
35497;DHT22;21609;49.298;6.844;2022-09-23T18:16:20;20.90;55.30
35497;DHT22;21609;49.298;6.844;2022-09-23T18:18:53;20.90;55.30
35497;DHT22;21609;49.298;6.844;2022-09-23T18:21:23;20.90;55.30